Time;durP1;ratioP1;P1;durP2;ratioP2;P2;SDS_P1;SDS_P2;PMS_P1;PMS_P2;Temp;Humidity;BMP_temperature;BMP_pressure;BME280_temperature;BME280_humidity;BME280_pressure;Samples;Min_cycle;Max_cycle;Signal;HPM_P1;HPM_P2
2021/03/28 00:01:06;;;;;;;12.02;9.13;;;;;;;11.95;54.24;101607.81;5108477;28;20543;-74
2021/03/28 00:03:39;;;;;;;9.75;6.80;;;;;;;11.90;53.70;101605.34;5096628;28;20512;-74
2021/03/28 00:06:16;;;;;;;11.45;7.80;;;;;;;11.75;54.13;101603.22;5109228;28;20485;-72
2021/03/28 00:09:05;;;;;;;10.65;7.75;;;;;;;11.82;54.56;101604.75;5107939;28;20043;-74
2021/03/28 00:11:36;;;;;;;8.52;6.95;;;;;;;11.78;54.30;101608.34;5109659;28;20043;-74
2021/03/28 00:14:04;;;;;;;6.22;5.53;;;;;;;11.76;54.33;101607.53;5108363;28;20044;-73
2021/03/28 00:16:45;;;;;;;7.10;4.80;;;;;;;11.75;54.44;101611.91;5109508;28;20345;-73
2021/03/28 00:19:32;;;;;;;12.65;5.50;;;;;;;11.75;54.58;101608.44;5107823;28;20071;-71
2021/03/28 00:22:01;;;;;;;11.40;5.07;;;;;;;11.76;54.46;101612.75;5109227;28;20036;-72
2021/03/28 00:24:39;;;;;;;7.05;5.30;;;;;;;11.85;54.26;101615.09;5108903;28;21533;-73
2021/03/28 00:27:15;;;;;;;9.10;5.55;;;;;;;11.73;54.81;101612.88;5109995;28;20055;-73
2021/03/28 00:29:58;;;;;;;9.25;4.28;;;;;;;11.69;54.73;101619.09;5109197;28;20036;-75
2021/03/28 00:32:42;;;;;;;6.95;4.82;;;;;;;11.75;54.17;101619.75;5107922;28;20616;-73
2021/03/28 00:35:14;;;;;;;5.82;4.68;;;;;;;11.73;54.61;101625.94;5109835;28;20050;-73
2021/03/28 00:37:46;;;;;;;5.32;4.20;;;;;;;11.72;54.88;101622.47;5108759;28;20032;-73
2021/03/28 00:40:22;;;;;;;5.38;4.80;;;;;;;11.87;54.18;101628.94;5107903;28;20490;-73
2021/03/28 00:43:03;;;;;;;6.63;4.43;;;;;;;11.84;54.15;101628.22;5056200;23;20045;-65
2021/03/28 00:45:44;;;;;;;5.65;3.95;;;;;;;11.89;53.39;101627.16;5027584;28;20053;-65
2021/03/28 00:48:32;;;;;;;4.85;4.32;;;;;;;11.97;53.76;101634.72;5012963;28;20033;-65
2021/03/28 00:51:24;;;;;;;6.47;4.55;;;;;;;11.84;54.72;101643.91;5013465;28;20045;-65
2021/03/28 00:54:09;;;;;;;8.85;7.13;;;;;;;11.54;54.17;101641.34;5026421;28;20407;-66
2021/03/28 00:56:45;;;;;;;8.02;5.28;;;;;;;11.20;54.62;101652.81;5026792;28;20049;-65
2021/03/28 00:59:33;;;;;;;7.13;4.22;;;;;;;11.32;54.48;101645.53;5011431;28;20041;-65
2021/03/28 01:02:14;;;;;;;6.28;4.97;;;;;;;11.44;54.25;101645.13;5011921;28;20046;-65
2021/03/28 01:05:11;;;;;;;7.22;5.18;;;;;;;11.53;54.25;101644.84;5026962;28;20041;-65
2021/03/28 01:07:52;;;;;;;5.53;5.03;;;;;;;11.53;54.71;101643.09;5025768;28;20033;-65
2021/03/28 01:10:45;;;;;;;12.10;5.72;;;;;;;11.55;55.02;101643.88;5028094;28;20124;-66
2021/03/28 01:13:33;;;;;;;5.75;4.38;;;;;;;11.67;55.08;101636.59;5026979;28;20037;-65
2021/03/28 01:16:15;;;;;;;7.05;4.45;;;;;;;11.65;55.19;101643.59;5027825;28;20073;-65
2021/03/28 01:19:03;;;;;;;6.40;4.57;;;;;;;11.67;55.15;101641.81;5028467;28;20488;-65
2021/03/28 01:21:52;;;;;;;6.80;4.72;;;;;;;11.72;55.34;101650.34;5026304;28;20399;-65
2021/03/28 01:24:27;;;;;;;6.07;5.47;;;;;;;11.73;54.86;101645.06;5027737;28;20133;-65
2021/03/28 01:27:52;;;;;;;7.25;5.57;;;;;;;11.82;54.84;101638.69;5027392;28;20037;-65
2021/03/28 01:30:35;;;;;;;6.38;4.90;;;;;;;11.74;55.55;101632.84;4927977;29;20058;-65
2021/03/28 01:33:13;;;;;;;6.28;5.07;;;;;;;11.79;55.21;101630.94;4928481;29;20051;-65
2021/03/28 01:35:53;;;;;;;21.25;8.25;;;;;;;11.72;55.22;101632.06;5007199;28;20073;-66
2021/03/28 01:38:25;;;;;;;7.00;4.60;;;;;;;11.77;55.27;101630.13;5024560;28;20768;-66
2021/03/28 01:41:11;;;;;;;7.72;5.05;;;;;;;11.73;54.92;101632.00;5025957;28;20084;-66
2021/03/28 01:44:06;;;;;;;6.75;4.85;;;;;;;11.69;55.51;101640.84;5023012;28;20053;-66
2021/03/28 01:47:09;;;;;;;6.18;4.10;;;;;;;11.74;55.20;101627.63;5024410;28;20628;-65
2021/03/28 01:49:54;;;;;;;6.63;3.85;;;;;;;11.98;54.04;101632.06;5025053;28;20523;-65
2021/03/28 01:52:46;;;;;;;3.92;3.47;;;;;;;12.07;53.62;101631.75;5026254;28;20053;-64
2021/03/28 01:55:38;;;;;;;4.28;3.85;;;;;;;12.10;53.24;101633.44;5025210;28;20079;-65
2021/03/28 01:58:07;;;;;;;4.63;4.03;;;;;;;12.10;53.23;101641.28;5026527;28;20053;-65
2021/03/28 02:00:54;;;;;;;5.70;3.20;;;;;;;12.13;52.78;101640.28;5025578;28;20069;-65
2021/03/28 02:03:33;;;;;;;5.75;4.80;;;;;;;12.11;52.74;101639.50;5028164;28;20071;-65
2021/03/28 02:06:02;;;;;;;8.15;3.65;;;;;;;12.09;52.90;101636.94;5020499;28;20088;-64
2021/03/28 02:08:55;;;;;;;4.93;3.83;;;;;;;12.09;52.92;101639.56;5023145;28;20404;-65
2021/03/28 02:11:34;;;;;;;5.30;3.17;;;;;;;12.15;52.61;101628.03;5025451;28;20080;-65
2021/03/28 02:14:10;;;;;;;4.10;3.30;;;;;;;12.19;52.54;101637.47;5022578;28;20069;-65
2021/03/28 02:17:08;;;;;;;5.15;3.38;;;;;;;12.22;52.11;101635.59;5022602;28;20103;-65
2021/03/28 02:19:37;;;;;;;4.50;2.90;;;;;;;12.32;51.99;101636.16;5026190;28;20052;-65
2021/03/28 02:22:21;;;;;;;5.40;3.35;;;;;;;12.33;51.68;101638.69;5021911;28;20057;-64
2021/03/28 02:24:58;;;;;;;5.47;3.70;;;;;;;12.22;52.69;101648.69;5023802;28;20041;-65
2021/03/28 02:27:45;;;;;;;5.68;4.43;;;;;;;12.21;54.07;101651.34;5025904;28;20104;-65
2021/03/28 02:30:55;;;;;;;4.88;3.35;;;;;;;12.18;52.99;101647.06;5024501;28;20127;-65
2021/03/28 02:33:49;;;;;;;4.75;3.40;;;;;;;12.07;53.68;101652.66;5017474;28;20087;-65
2021/03/28 02:36:23;;;;;;;9.37;4.27;;;;;;;12.06;54.98;101653.56;5024120;28;20041;-65
2021/03/28 02:39:12;;;;;;;9.23;4.18;;;;;;;12.10;54.98;101651.72;5023665;28;20066;-65
2021/03/28 02:41:53;;;;;;;8.45;3.95;;;;;;;12.23;54.02;101653.00;5025800;28;20121;-65
2021/03/28 02:44:44;;;;;;;7.53;4.38;;;;;;;12.17;54.43;101647.97;5025117;28;20125;-64
2021/03/28 02:47:41;;;;;;;6.50;4.30;;;;;;;12.20;54.28;101657.50;5025056;28;20051;-65
2021/03/28 02:50:43;;;;;;;10.45;4.18;;;;;;;12.14;54.83;101655.06;5023477;28;20124;-65
2021/03/28 02:53:39;;;;;;;6.45;4.40;;;;;;;12.06;55.05;101661.41;5022169;28;20510;-65
2021/03/28 02:56:26;;;;;;;4.80;3.95;;;;;;;12.13;54.90;101658.59;5024182;28;20124;-65
2021/03/28 02:59:18;;;;;;;6.95;4.72;;;;;;;12.07;55.23;101660.50;5020491;28;20550;-65
2021/03/28 03:02:32;;;;;;;5.20;4.68;;;;;;;12.00;55.62;101666.00;5025713;28;20088;-65
2021/03/28 03:05:24;;;;;;;5.18;4.63;;;;;;;11.94;54.91;101676.66;4926025;29;20215;-65
2021/03/28 03:08:17;;;;;;;7.35;4.50;;;;;;;11.50;55.22;101677.16;5024857;28;20095;-65
2021/03/28 03:11:21;;;;;;;7.15;5.30;;;;;;;11.33;55.87;101675.94;5020260;28;20038;-65
2021/03/28 03:14:20;;;;;;;8.05;5.10;;;;;;;11.12;56.26;101685.25;5027017;28;20080;-65
2021/03/28 03:17:08;;;;;;;7.57;5.68;;;;;;;11.21;55.75;101687.63;5026545;28;20511;-65
2021/03/28 03:20:08;;;;;;;8.77;6.47;;;;;;;11.00;56.15;101686.47;5027768;28;20045;-65
2021/03/28 03:23:10;;;;;;;6.07;4.95;;;;;;;10.92;56.28;101698.88;5029910;28;20041;-65
2021/03/28 03:25:56;;;;;;;7.35;6.20;;;;;;;11.03;56.45;101696.84;4997240;28;20045;-65
2021/03/28 03:28:22;;;;;;;6.65;4.93;;;;;;;11.06;56.67;101701.09;5027016;28;20056;-65
2021/03/28 03:30:58;;;;;;;8.48;6.28;;;;;;;10.98;56.67;101707.41;5021299;28;20044;-65
2021/03/28 03:34:09;;;;;;;7.13;5.85;;;;;;;10.99;56.64;101706.50;5028592;28;20124;-65
2021/03/28 03:37:02;;;;;;;8.07;5.93;;;;;;;11.05;56.28;101712.44;5025825;28;20049;-65
2021/03/28 03:39:49;;;;;;;7.85;5.80;;;;;;;11.05;56.87;101718.53;5029175;28;20045;-65
2021/03/28 03:42:24;;;;;;;7.82;5.68;;;;;;;11.13;56.31;101711.34;5024767;28;20134;-65
2021/03/28 03:45:15;;;;;;;8.68;6.40;;;;;;;11.04;56.45;101714.19;5026311;28;20579;-65
2021/03/28 03:48:00;;;;;;;6.93;5.70;;;;;;;11.07;56.76;101723.69;5026437;28;20065;-65
2021/03/28 03:50:58;;;;;;;7.20;6.50;;;;;;;11.12;56.09;101727.03;5025155;28;20172;-66
2021/03/28 03:54:06;;;;;;;8.02;5.80;;;;;;;11.12;56.30;101725.25;5029211;28;20164;-64
2021/03/28 03:56:48;;;;;;;10.15;5.53;;;;;;;11.10;56.50;101732.28;5026093;28;20164;-66
2021/03/28 03:59:29;;;;;;;8.18;5.80;;;;;;;11.01;56.76;101733.41;5026270;28;20111;-66
2021/03/28 04:02:25;;;;;;;9.73;5.53;;;;;;;11.21;56.21;101739.81;5024138;28;20128;-66
2021/03/28 04:05:18;;;;;;;7.10;5.75;;;;;;;11.09;57.08;101737.56;5020619;28;20042;-66
2021/03/28 04:08:03;;;;;;;8.65;6.15;;;;;;;11.15;56.72;101742.59;5025740;28;20463;-65
2021/03/28 04:11:06;;;;;;;9.07;7.28;;;;;;;11.10;56.53;101741.88;5027009;28;20069;-66
2021/03/28 04:14:18;;;;;;;9.65;6.82;;;;;;;11.12;56.32;101743.53;5010286;28;20077;-66
2021/03/28 04:17:09;;;;;;;7.90;6.15;;;;;;;11.20;56.03;101752.00;4996382;28;20049;-66
2021/03/28 04:20:02;;;;;;;9.30;6.03;;;;;;;11.35;55.66;101753.34;5028071;28;20536;-65
2021/03/28 04:22:47;;;;;;;7.70;6.05;;;;;;;11.19;56.00;101754.69;5023328;28;20049;-65
2021/03/28 04:25:24;;;;;;;8.10;6.35;;;;;;;11.01;56.10;101766.47;5024550;28;20045;-66
2021/03/28 04:28:24;;;;;;;9.13;7.05;;;;;;;10.97;56.23;101770.94;5026803;28;20045;-65
2021/03/28 04:31:14;;;;;;;7.35;6.50;;;;;;;11.23;56.04;101771.94;5026673;28;20107;-65
2021/03/28 04:33:46;;;;;;;12.50;8.02;;;;;;;11.24;55.63;101778.91;5017109;28;20496;-65
2021/03/28 04:36:31;;;;;;;10.32;7.78;;;;;;;10.91;56.08;101781.50;5027354;28;20046;-65
2021/03/28 04:39:16;;;;;;;10.20;7.15;;;;;;;10.86;56.23;101787.75;5022535;28;20041;-66
2021/03/28 04:42:04;;;;;;;12.38;7.82;;;;;;;10.94;56.03;101783.19;5019372;28;20069;-65
2021/03/28 04:44:49;;;;;;;11.82;8.05;;;;;;;10.88;56.54;101783.38;5009500;28;20081;-65
2021/03/28 04:47:24;;;;;;;13.40;8.52;;;;;;;11.10;55.96;101783.63;5032729;28;20037;-65
2021/03/28 04:50:24;;;;;;;10.15;7.60;;;;;;;11.04;56.28;101787.28;5030944;28;20041;-65
2021/03/28 04:53:01;;;;;;;9.57;7.25;;;;;;;11.19;55.73;101786.00;5025348;28;20065;-66
2021/03/28 04:55:46;;;;;;;13.95;7.85;;;;;;;11.07;56.17;101792.38;5024873;28;20041;-65
2021/03/28 04:58:30;;;;;;;11.60;8.93;;;;;;;11.02;56.35;101796.88;5026195;28;20038;-65
2021/03/28 05:01:32;;;;;;;11.30;8.05;;;;;;;11.02;57.13;101800.38;5024196;28;20116;-65
2021/03/28 05:04:17;;;;;;;9.50;7.88;;;;;;;11.00;57.33;101796.94;5025582;28;20080;-67
2021/03/28 05:06:50;;;;;;;11.35;8.20;;;;;;;11.02;57.42;101800.38;5023227;28;20034;-66
2021/03/28 05:09:26;;;;;;;9.77;7.93;;;;;;;11.03;57.25;101803.84;5025553;28;20060;-67
2021/03/28 05:12:20;;;;;;;11.93;7.82;;;;;;;11.01;57.35;101811.69;5022514;28;20411;-67
2021/03/28 05:15:14;;;;;;;10.32;7.32;;;;;;;10.97;57.23;101810.06;5023426;28;20050;-66
2021/03/28 05:17:52;;;;;;;12.82;7.78;;;;;;;10.96;57.91;101810.94;5028092;28;20055;-66
2021/03/28 05:20:40;;;;;;;13.93;7.53;;;;;;;11.22;56.82;101812.00;5025830;28;20107;-66
2021/03/28 05:23:47;;;;;;;11.35;8.13;;;;;;;11.17;57.33;101808.66;5025500;28;21569;-66
2021/03/28 05:26:22;;;;;;;11.20;7.53;;;;;;;11.35;57.02;101818.59;5023395;28;20073;-66
2021/03/28 05:29:14;;;;;;;8.32;7.53;;;;;;;11.45;56.49;101809.63;5025585;28;20057;-66
2021/03/28 05:31:53;;;;;;;9.73;7.95;;;;;;;11.48;56.56;101814.72;5022728;28;20042;-66
2021/03/28 05:34:37;;;;;;;9.40;8.02;;;;;;;11.45;56.50;101808.72;5023845;28;20037;-66
2021/03/28 05:37:21;;;;;;;9.93;7.75;;;;;;;11.47;56.72;101814.78;5024231;28;20045;-66
2021/03/28 05:40:13;;;;;;;7.93;7.20;;;;;;;11.50;56.57;101812.94;5025230;28;21714;-66
2021/03/28 05:43:03;;;;;;;10.15;7.38;;;;;;;11.52;56.51;101820.72;5024810;28;20061;-66
2021/03/28 05:46:02;;;;;;;8.80;7.32;;;;;;;11.39;56.76;101830.66;5007126;28;20037;-66
2021/03/28 05:49:06;;;;;;;10.45;7.70;;;;;;;11.43;57.44;101836.66;4981893;28;20037;-66
2021/03/28 05:51:51;;;;;;;11.65;6.95;;;;;;;11.62;56.44;101837.84;5023161;28;20097;-66
2021/03/28 05:54:51;;;;;;;9.23;7.63;;;;;;;11.50;56.84;101835.56;5024550;28;20064;-66
2021/03/28 05:57:45;;;;;;;9.07;7.47;;;;;;;11.63;57.12;101838.69;5022874;28;20045;-66
2021/03/28 06:00:39;;;;;;;10.00;7.20;;;;;;;11.71;56.88;101841.94;5024059;28;20069;-65
2021/03/28 06:03:42;;;;;;;10.82;7.93;;;;;;;11.66;56.95;101842.06;5030370;28;20488;-65
2021/03/28 06:06:12;;;;;;;13.15;7.32;;;;;;;11.73;57.19;101855.81;5023963;28;20076;-65
2021/03/28 06:08:47;;;;;;;11.93;8.15;;;;;;;11.87;56.85;101858.03;5027960;28;20045;-65
2021/03/28 06:11:47;;;;;;;9.80;7.93;;;;;;;11.94;56.67;101865.66;5028756;28;20115;-67
2021/03/28 06:14:32;;;;;;;11.98;8.18;;;;;;;12.10;56.20;101862.59;5025367;28;20053;-69
2021/03/28 06:17:02;;;;;;;;;;;;;;;12.30;56.03;101862.81;5030370;28;20056;-70
2021/03/28 06:19:37;;;;;;;11.77;9.27;;;;;;;12.63;55.16;101868.75;5032145;28;20008;-69
2021/03/28 06:22:12;;;;;;;14.38;8.85;;;;;;;13.01;54.63;101866.59;5027129;28;20084;-69
2021/03/28 06:24:57;;;;;;;9.70;8.63;;;;;;;12.90;53.90;101866.13;5031851;28;20068;-67
2021/03/28 06:27:52;;;;;;;9.18;8.25;;;;;;;12.99;53.25;101874.47;5029301;28;20435;-68
2021/03/28 06:30:24;;;;;;;11.05;8.18;;;;;;;13.02;54.25;101863.06;5028244;28;20119;-65
2021/03/28 06:33:11;;;;;;;10.25;8.48;;;;;;;13.02;54.04;101874.41;5028574;28;20124;-70
2021/03/28 06:35:55;;;;;;;8.88;7.97;;;;;;;13.09;54.14;101881.13;5029863;28;20095;-67
2021/03/28 06:39:01;;;;;;;9.23;7.72;;;;;;;13.17;53.86;101875.63;5030508;28;20344;-67
2021/03/28 06:41:49;;;;;;;14.20;7.18;;;;;;;13.25;53.41;101875.38;4990938;28;20069;-69
2021/03/28 06:44:30;;;;;;;8.63;5.95;;;;;;;13.34;53.26;101877.69;5028622;28;20065;-69
2021/03/28 06:47:24;;;;;;;6.90;5.75;;;;;;;13.37;53.35;101877.59;5030454;28;20038;-67
2021/03/28 06:50:18;;;;;;;7.07;5.72;;;;;;;13.52;53.05;101884.88;5032299;28;20045;-65
2021/03/28 06:53:06;;;;;;;10.85;6.65;;;;;;;13.57;53.13;101889.94;5030693;28;20399;-67
2021/03/28 06:55:41;;;;;;;7.63;5.28;;;;;;;13.54;53.53;101890.94;5035797;28;20045;-69
2021/03/28 06:58:26;;;;;;;7.40;4.85;;;;;;;13.67;53.10;101891.31;5032157;28;20099;-70
2021/03/28 07:01:02;;;;;;;;;;;;;;;13.55;52.84;101889.16;5032382;28;20045;-67
2021/03/28 07:03:51;;;;;;;;;;;;;;;13.59;53.08;101888.16;5028752;28;20007;-66
2021/03/28 07:06:36;;;;;;;5.95;5.35;;;;;;;13.56;55.80;101896.09;5032070;28;20019;-69
2021/03/28 07:09:09;;;;;;;7.93;6.00;;;;;;;13.40;57.34;101895.81;5031964;28;20049;-69
2021/03/28 07:11:41;;;;;;;6.53;5.70;;;;;;;13.75;56.52;101891.06;5026799;28;20046;-69
2021/03/28 07:14:49;;;;;;;10.05;6.25;;;;;;;13.93;56.76;101895.59;5027649;28;20034;-70
2021/03/28 07:17:27;;;;;;;9.38;6.25;;;;;;;13.92;57.00;101899.16;5031218;28;20046;-69
2021/03/28 07:20:15;;;;;;;6.32;5.72;;;;;;;13.97;57.40;101905.06;5031531;28;20091;-69
2021/03/28 07:23:15;;;;;;;18.45;9.38;;;;;;;14.13;58.44;101906.19;5031249;28;20049;-69
2021/03/28 07:25:47;;;;;;;14.07;6.55;;;;;;;14.13;58.57;101914.06;5030457;28;20457;-68
2021/03/28 07:28:42;;;;;;;9.95;6.60;;;;;;;13.93;59.12;101913.09;5031798;28;20396;-69
2021/03/28 07:31:46;;;;;;;8.32;6.78;;;;;;;14.21;57.59;101913.75;5018817;28;20515;-69
2021/03/28 07:34:16;;;;;;;10.32;6.20;;;;;;;14.27;56.80;101915.28;5017727;28;20124;-69
2021/03/28 07:37:13;;;;;;;8.38;6.70;;;;;;;14.61;55.87;101915.69;5030025;28;20072;-69
2021/03/28 07:39:55;;;;;;;7.38;5.85;;;;;;;14.60;55.97;101921.88;5028352;28;20053;-68
2021/03/28 07:42:52;;;;;;;7.57;6.57;;;;;;;14.51;55.45;101924.84;5024329;28;20081;-68
2021/03/28 07:45:30;;;;;;;10.00;6.85;;;;;;;14.76;55.30;101927.34;5022350;28;20088;-67
2021/03/28 07:48:33;;;;;;;12.30;8.80;;;;;;;14.76;53.55;101937.00;5021934;28;20125;-68
2021/03/28 07:51:08;;;;;;;12.93;9.05;;;;;;;14.91;53.27;101933.72;5018698;28;20053;-68
2021/03/28 07:53:59;;;;;;;11.82;8.15;;;;;;;14.93;52.73;101939.78;5014685;28;20559;-68
2021/03/28 07:56:44;;;;;;;15.07;9.85;;;;;;;14.93;52.46;101945.03;4998508;28;20053;-68
2021/03/28 07:59:40;;;;;;;15.77;10.50;;;;;;;15.14;51.87;101946.78;5031840;28;20057;-68
2021/03/28 08:02:37;;;;;;;14.82;11.43;;;;;;;15.04;52.23;101957.72;5029887;28;20502;-67
2021/03/28 08:05:24;;;;;;;12.98;11.52;;;;;;;15.09;52.44;101948.75;5031542;28;20037;-69
2021/03/28 08:07:54;;;;;;;18.20;11.73;;;;;;;15.14;51.98;101954.66;5025281;28;20498;-70
2021/03/28 08:10:43;;;;;;;16.45;12.98;;;;;;;15.18;51.66;101948.38;5004318;28;21328;-70
2021/03/28 08:13:37;;;;;;;20.95;14.27;;;;;;;15.30;50.80;101956.63;5027874;28;20049;-69
2021/03/28 08:16:04;;;;;;;16.40;13.60;;;;;;;15.29;50.78;101962.81;5030800;28;20135;-67
2021/03/28 08:18:42;;;;;;;21.60;14.85;;;;;;;15.54;50.42;101958.19;5028447;28;20120;-66
2021/03/28 08:21:31;;;;;;;21.60;12.00;;;;;;;15.70;49.99;101947.88;5030283;28;20095;-66
2021/03/28 08:24:35;;;;;;;21.90;11.43;;;;;;;15.68;49.61;101955.84;5029997;28;20370;-67
2021/03/28 08:27:55;;;;;;;16.05;10.52;;;;;;;15.97;48.99;101956.31;5029332;28;20060;-68
2021/03/28 08:30:33;;;;;;;17.65;14.75;;;;;;;16.30;48.37;101955.69;5030721;28;20132;-67
2021/03/28 08:33:37;;;;;;;14.88;11.65;;;;;;;17.10;47.39;101964.13;5032505;28;20144;-67
2021/03/28 08:36:27;;;;;;;18.80;12.25;;;;;;;17.62;45.46;101966.69;5031424;28;20038;-67
2021/03/28 08:39:12;;;;;;;16.52;12.73;;;;;;;18.09;44.43;101965.16;5031060;28;20045;-67
2021/03/28 08:41:47;;;;;;;18.20;13.60;;;;;;;17.92;44.61;101960.78;5031200;28;20054;-66
2021/03/28 08:44:34;;;;;;;19.00;13.80;;;;;;;17.91;44.34;101961.72;5031337;28;20048;-67
2021/03/28 08:47:22;;;;;;;17.52;13.90;;;;;;;17.60;44.81;101965.94;5031408;28;20104;-66
2021/03/28 08:50:16;;;;;;;21.95;16.88;;;;;;;17.75;44.78;101978.38;5030782;28;20054;-67
2021/03/28 08:52:48;;;;;;;18.80;15.73;;;;;;;17.64;45.36;101975.41;5031151;28;20045;-65
2021/03/28 08:55:38;;;;;;;15.98;14.13;;;;;;;18.05;45.00;101980.28;5030387;28;20045;-64
2021/03/28 08:58:17;;;;;;;18.25;15.02;;;;;;;17.72;45.37;101978.50;5030654;28;20539;-71
2021/03/28 09:01:04;;;;;;;23.13;16.30;;;;;;;17.87;45.07;101973.38;5029728;28;20042;-71
2021/03/28 09:03:52;;;;;;;18.45;16.42;;;;;;;17.48;45.83;101972.72;5032971;28;20037;-72
2021/03/28 09:06:46;;;;;;;17.45;14.93;;;;;;;18.01;45.34;101968.22;5030831;28;20066;-73
2021/03/28 09:09:29;;;;;;;20.05;14.80;;;;;;;18.29;44.75;101963.13;5032497;28;20128;-74
2021/03/28 09:12:00;;;;;;;19.80;15.57;;;;;;;18.50;44.30;101962.88;5031967;28;20065;-72
2021/03/28 09:14:56;;;;;;;20.92;14.75;;;;;;;19.07;43.33;101966.66;5025879;28;20041;-74
2021/03/28 09:17:38;;;;;;;22.98;14.80;;;;;;;19.79;41.27;101957.06;5032140;28;20049;-68
2021/03/28 09:20:58;;;;;;;15.57;12.80;;;;;;;20.06;40.84;101962.44;5031424;28;20424;-68
2021/03/28 09:23:36;;;;;;;14.68;11.95;;;;;;;20.47;40.25;101952.84;5005548;28;20081;-69
2021/03/28 09:26:08;;;;;;;15.23;10.73;;;;;;;20.53;39.49;101957.75;5028013;28;20124;-66
2021/03/28 09:28:40;;;;;;;12.02;10.55;;;;;;;19.94;40.05;101963.22;5024452;28;20096;-70
2021/03/28 09:31:09;;;;;;;11.68;10.30;;;;;;;19.91;40.22;101959.88;5029628;28;20396;-72
2021/03/28 09:33:54;;;;;;;13.20;10.68;;;;;;;19.56;40.03;101961.09;5028466;28;20550;-72
2021/03/28 09:36:31;;;;;;;17.30;11.55;;;;;;;19.27;40.83;101956.69;5032197;28;20046;-71
2021/03/28 09:39:19;;;;;;;17.92;12.20;;;;;;;19.06;41.50;101967.56;5026089;28;20095;-71
2021/03/28 09:42:04;;;;;;;20.48;12.68;;;;;;;18.63;43.12;101968.31;5021385;28;20537;-71
2021/03/28 09:44:52;;;;;;;16.48;11.57;;;;;;;18.55;43.42;101972.25;5026167;28;20047;-71
2021/03/28 09:47:37;;;;;;;14.85;11.52;;;;;;;18.49;43.69;101966.47;5024031;28;20050;-71
2021/03/28 09:50:28;;;;;;;18.17;11.75;;;;;;;18.31;43.28;101966.53;5030150;28;20403;-71
2021/03/28 09:53:25;;;;;;;15.45;9.63;;;;;;;18.43;42.65;101969.41;5007464;28;20037;-71
2021/03/28 09:56:22;;;;;;;20.95;13.25;;;;;;;17.99;44.52;101972.69;5028721;28;20042;-70
2021/03/28 09:59:16;;;;;;;15.67;13.30;;;;;;;17.62;45.56;101976.41;5030475;28;20046;-70
2021/03/28 10:01:54;;;;;;;21.80;13.20;;;;;;;17.75;45.59;101970.44;5026043;28;20296;-71
2021/03/28 10:04:47;;;;;;;13.55;10.93;;;;;;;17.78;44.55;101975.53;5015022;28;20045;-71
2021/03/28 10:07:21;;;;;;;11.57;10.40;;;;;;;17.78;45.30;101983.47;4995167;28;20042;-71
2021/03/28 10:09:50;;;;;;;;;;;;;;;17.96;44.38;101970.25;5025048;28;20049;-71
2021/03/28 10:12:37;;;;;;;11.70;9.45;;;;;;;17.89;44.69;101966.22;5019352;28;20360;-71
2021/03/28 10:15:15;;;;;;;11.65;9.57;;;;;;;18.01;44.78;101968.22;4976893;28;20125;-71
2021/03/28 10:18:03;;;;;;;11.70;10.43;;;;;;;17.93;44.54;101965.13;5026298;28;20045;-71
2021/03/28 10:20:44;;;;;;;11.88;9.75;;;;;;;17.64;44.49;101975.41;5023962;28;20120;-71
2021/03/28 10:23:35;;;;;;;10.10;8.80;;;;;;;17.81;43.87;101964.00;5022692;28;20120;-73
2021/03/28 10:26:37;;;;;;;14.70;8.50;;;;;;;17.76;43.65;101961.59;5022582;28;20052;-69
2021/03/28 10:29:41;;;;;;;11.75;8.60;;;;;;;17.75;44.07;101962.53;5019727;28;20065;-69
2021/03/28 10:32:47;;;;;;;11.93;9.93;;;;;;;17.76;44.32;101956.31;5023154;28;20503;-71
2021/03/28 10:35:26;;;;;;;15.73;8.40;;;;;;;17.66;44.71;101955.06;5027615;28;20040;-73
2021/03/28 10:38:30;;;;;;;16.70;9.18;;;;;;;17.65;43.82;101955.16;5031603;28;20132;-71
2021/03/28 10:41:08;;;;;;;12.07;8.48;;;;;;;17.60;43.90;101951.91;5028318;28;20048;-71
2021/03/28 10:43:53;;;;;;;13.38;10.00;;;;;;;17.75;43.73;101954.63;5029432;28;20068;-69
2021/03/28 10:46:32;;;;;;;11.07;8.20;;;;;;;17.61;44.75;101948.34;5028078;28;20053;-70
2021/03/28 10:49:27;;;;;;;8.25;6.50;;;;;;;17.60;44.65;101952.75;5018718;28;20077;-71
2021/03/28 10:52:12;;;;;;;12.88;8.60;;;;;;;17.67;43.96;101948.84;5019734;28;20387;-72
2021/03/28 10:55:15;;;;;;;10.45;8.07;;;;;;;17.65;44.15;101941.97;5019340;28;20111;-70
2021/03/28 10:58:19;;;;;;;10.05;7.60;;;;;;;17.66;44.11;101947.16;5022118;28;20049;-72
2021/03/28 11:01:11;;;;;;;15.82;7.57;;;;;;;17.59;43.70;101935.25;5021936;28;20061;-72
2021/03/28 11:04:02;;;;;;;11.40;8.35;;;;;;;17.46;43.90;101944.69;5020021;28;20481;-71
2021/03/28 11:06:42;;;;;;;10.25;7.95;;;;;;;17.50;44.32;101940.97;5031213;28;20046;-70
2021/03/28 11:09:29;;;;;;;31.48;8.50;;;;;;;17.42;44.40;101941.41;5030529;28;20037;-71
2021/03/28 11:12:28;;;;;;;15.05;9.63;;;;;;;17.47;44.02;101936.75;5029987;28;20048;-70
2021/03/28 11:15:03;;;;;;;14.02;9.70;;;;;;;17.45;44.08;101932.47;4987975;28;20064;-71
2021/03/28 11:18:13;;;;;;;12.38;9.43;;;;;;;17.49;44.26;101928.75;5024508;28;20056;-71
2021/03/28 11:20:53;;;;;;;16.75;8.18;;;;;;;17.50;44.08;101925.16;5018484;28;20148;-72
2021/03/28 11:23:39;;;;;;;12.23;7.50;;;;;;;17.45;44.96;101927.19;5019963;28;20143;-72
2021/03/28 11:26:24;;;;;;;15.52;8.43;;;;;;;17.40;44.75;101922.16;5029217;28;20045;-73
2021/03/28 11:29:08;;;;;;;8.55;6.80;;;;;;;17.56;44.09;101924.84;5029311;28;20077;-72
2021/03/28 11:31:53;;;;;;;12.70;9.63;;;;;;;17.57;44.17;101915.13;5023163;28;20033;-73
2021/03/28 11:34:24;;;;;;;17.60;11.52;;;;;;;17.62;44.24;101918.38;5034966;28;20061;-72
2021/03/28 11:37:00;;;;;;;11.57;8.48;;;;;;;17.60;44.14;101912.34;5027054;28;20049;-73
2021/03/28 11:39:32;;;;;;;11.60;8.45;;;;;;;17.61;43.67;101917.53;5026389;28;20399;-72
2021/03/28 11:42:21;;;;;;;14.13;11.02;;;;;;;17.65;43.60;101908.53;5024501;28;20091;-73
2021/03/28 11:45:00;;;;;;;11.43;8.00;;;;;;;17.65;43.40;101915.59;5026331;28;20038;-69
2021/03/28 11:47:31;;;;;;;8.98;7.93;;;;;;;17.70;43.90;101911.78;5016436;28;20045;-70
2021/03/28 11:50:13;;;;;;;8.75;6.75;;;;;;;17.68;43.95;101907.50;5026395;28;20049;-70
2021/03/28 11:52:54;;;;;;;9.55;6.80;;;;;;;17.74;44.14;101900.19;5026144;28;20102;-69
2021/03/28 11:55:35;;;;;;;8.20;7.18;;;;;;;17.78;43.87;101899.06;5025083;28;20073;-69
2021/03/28 11:58:16;;;;;;;14.20;8.32;;;;;;;17.70;43.85;101897.75;5024580;28;20033;-70
2021/03/28 12:00:48;;;;;;;8.85;7.90;;;;;;;17.74;43.84;101892.25;5024976;28;20052;-70
2021/03/28 12:03:24;;;;;;;15.00;8.20;;;;;;;17.59;43.82;101897.47;5024908;28;20267;-70
2021/03/28 12:06:27;;;;;;;20.52;9.00;;;;;;;17.62;43.13;101892.88;5020671;28;20049;-70
2021/03/28 12:08:53;;;;;;;7.30;6.60;;;;;;;17.75;43.18;101895.75;5022397;28;20041;-69
2021/03/28 12:11:41;;;;;;;8.68;6.78;;;;;;;17.61;42.74;101898.22;5023467;28;20155;-70
2021/03/28 12:14:14;;;;;;;9.20;6.63;;;;;;;17.70;43.31;101885.41;5023282;28;20395;-70
2021/03/28 12:17:02;;;;;;;8.10;5.95;;;;;;;17.70;43.06;101888.06;5024097;28;20060;-70
2021/03/28 12:19:41;;;;;;;9.02;7.65;;;;;;;17.63;43.58;101876.13;5024416;28;20042;-70
2021/03/28 12:22:17;;;;;;;11.23;8.07;;;;;;;17.70;44.04;101879.28;5024208;28;20100;-69
2021/03/28 12:24:55;;;;;;;13.65;10.55;;;;;;;17.71;44.05;101873.91;5026748;28;20063;-70
2021/03/28 12:27:34;;;;;;;9.30;6.90;;;;;;;17.80;43.62;101870.81;5025268;28;20405;-70
2021/03/28 12:30:02;;;;;;;13.00;8.73;;;;;;;17.78;44.77;101866.56;5023996;28;20107;-69
2021/03/28 12:32:51;;;;;;;11.68;7.97;;;;;;;17.82;43.54;101865.47;5026475;28;20041;-70
2021/03/28 12:35:23;;;;;;;13.35;8.73;;;;;;;17.75;44.20;101861.47;5020825;28;20120;-70
2021/03/28 12:37:51;;;;;;;11.93;8.95;;;;;;;17.79;43.62;101866.50;5023136;28;20137;-69
2021/03/28 12:40:31;;;;;;;11.80;8.00;;;;;;;17.79;43.08;101858.59;5024104;28;20129;-71
2021/03/28 12:43:02;;;;;;;11.70;7.75;;;;;;;17.74;42.77;101862.41;5022373;28;20128;-71
2021/03/28 12:45:33;;;;;;;12.05;7.82;;;;;;;17.80;42.55;101852.38;5021829;28;23361;-70
2021/03/28 12:48:04;;;;;;;9.68;8.10;;;;;;;17.84;42.60;101854.81;5023253;28;20122;-69